Time;durP1;ratioP1;P1;durP2;ratioP2;P2;SDS_P1;SDS_P2;PMS_P1;PMS_P2;Temp;Humidity;BMP_temperature;BMP_pressure;BME280_temperature;BME280_humidity;BME280_pressure;Samples;Min_cycle;Max_cycle;Signal;HPM_P1;HPM_P2
2023/11/20 00:01:21;;;;;;;13.20;7.00;;;;;;;4.70;100.00;98320.58;271537;1266;22527;-89
2023/11/20 00:07:24;;;;;;;13.50;6.80;;;;;;;4.76;100.00;98320.86;271218;1266;22554;-88
2023/11/20 00:13:46;;;;;;;13.70;7.30;;;;;;;4.81;100.00;98323.06;272037;1266;22416;-89
2023/11/20 00:19:49;;;;;;;12.90;6.70;;;;;;;4.85;100.00;98321.92;271470;1266;25307;-87
2023/11/20 00:25:55;;;;;;;14.80;6.40;;;;;;;4.91;100.00;98323.77;271243;1260;22526;-88
2023/11/20 00:32:13;;;;;;;9.80;5.10;;;;;;;4.96;100.00;98324.17;271720;1266;23871;-87
2023/11/20 00:38:36;;;;;;;9.30;5.10;;;;;;;4.99;100.00;98320.30;271983;1266;24391;-88
2023/11/20 00:44:54;;;;;;;12.80;6.30;;;;;;;5.01;100.00;98320.82;271545;1263;22615;-88
2023/11/20 00:51:04;;;;;;;10.20;5.70;;;;;;;5.05;100.00;98326.25;272398;1266;22533;-88
2023/11/20 00:57:29;;;;;;;12.20;6.20;;;;;;;5.08;100.00;98322.81;272772;1266;23107;-88
2023/11/20 01:03:32;;;;;;;12.30;5.80;;;;;;;5.12;100.00;98322.43;273614;1266;23572;-88
2023/11/20 01:09:34;;;;;;;10.90;5.10;;;;;;;5.16;100.00;98316.79;272983;1266;22893;-87
2023/11/20 01:15:36;;;;;;;15.50;6.00;;;;;;;5.19;100.00;98313.90;273415;1267;22277;-88
2023/11/20 01:21:40;;;;;;;15.80;5.90;;;;;;;5.23;100.00;98312.38;272999;1266;22480;-88
2023/11/20 01:27:42;;;;;;;15.00;6.30;;;;;;;5.27;100.00;98318.25;271760;1266;22550;-88
2023/11/20 01:34:04;;;;;;;9.80;4.90;;;;;;;5.28;100.00;98311.09;273207;1251;22274;-87
2023/11/20 01:40:07;;;;;;;14.20;5.60;;;;;;;5.28;100.00;98307.91;272165;1266;22410;-88
2023/11/20 01:46:29;;;;;;;8.90;4.90;;;;;;;5.30;100.00;98312.44;273519;1269;23933;-88
2023/11/20 01:52:31;;;;;;;10.80;5.00;;;;;;;5.32;100.00;98310.54;273363;1266;23167;-88
2023/11/20 01:58:33;;;;;;;12.00;5.00;;;;;;;5.34;100.00;98302.82;273820;1266;22389;-87
2023/11/20 02:04:38;;;;;;;12.90;5.70;;;;;;;5.36;100.00;98302.16;272575;1266;22414;-87
2023/11/20 02:11:13;;;;;;;13.30;4.80;;;;;;;5.38;100.00;98303.15;274065;1268;22236;-89
2023/11/20 02:17:35;;;;;;;11.40;4.40;;;;;;;5.40;100.00;98303.42;273631;1266;23627;-87
2023/11/20 02:23:38;;;;;;;9.40;4.50;;;;;;;5.44;100.00;98307.70;273796;1266;22362;-88
2023/11/20 02:29:54;;;;;;;8.50;4.00;;;;;;;5.47;100.00;98296.51;273486;1267;23558;-87
2023/11/20 02:35:59;;;;;;;11.70;4.70;;;;;;;5.48;100.00;98287.77;272870;1259;22572;-89
2023/11/20 02:42:03;;;;;;;11.50;4.90;;;;;;;5.48;100.00;98285.59;272768;1268;23147;-88
2023/11/20 02:48:05;;;;;;;9.80;4.80;;;;;;;5.52;100.00;98287.06;272869;1269;22600;-88
2023/11/20 02:54:07;;;;;;;9.20;4.80;;;;;;;5.56;100.00;98290.18;272743;1269;23324;-89
2023/11/20 03:00:12;;;;;;;6.40;4.10;;;;;;;5.59;100.00;98283.72;272117;1268;22573;-88
2023/11/20 03:06:14;;;;;;;9.10;4.30;;;;;;;5.61;100.00;98282.42;272609;1269;22254;-89
2023/11/20 03:12:17;;;;;;;9.40;3.70;;;;;;;5.60;100.00;98281.33;273132;1269;22195;-90
2023/11/20 03:18:19;;;;;;;9.30;3.70;;;;;;;5.59;100.00;98282.86;272911;1269;22203;-88
2023/11/20 03:24:21;;;;;;;9.20;3.90;;;;;;;5.61;100.00;98281.88;272926;1269;22207;-89
2023/11/20 03:30:23;;;;;;;7.00;3.50;;;;;;;5.61;100.00;98285.16;272231;1269;22406;-89
2023/11/20 03:36:42;;;;;;;4.90;2.90;;;;;;;5.64;100.00;98282.57;273184;1269;22315;-89
2023/11/20 03:43:41;;;;;;;6.30;3.00;;;;;;;5.64;100.00;98279.77;273411;1269;23174;-88
2023/11/20 03:57:09;;;;;;;6.90;3.80;;;;;;;5.46;100.00;98265.77;272515;1269;22187;-89
2023/11/20 04:03:37;;;;;;;7.20;3.30;;;;;;;5.38;100.00;98264.20;273637;1272;22313;-87
2023/11/20 04:09:39;;;;;;;6.00;3.60;;;;;;;5.37;100.00;98261.32;273124;1269;22552;-88
2023/11/20 04:15:40;;;;;;;10.30;3.40;;;;;;;5.43;100.00;98262.23;273098;1272;22497;-87
2023/11/20 04:22:35;;;;;;;9.70;3.70;;;;;;;5.51;100.00;98266.56;273478;1276;22269;-87
2023/11/20 04:29:03;;;;;;;5.10;3.50;;;;;;;5.58;100.00;98264.38;273517;1271;23539;-88
2023/11/20 04:35:30;;;;;;;10.70;3.10;;;;;;;5.63;100.00;98259.52;273389;1273;22151;-89
2023/11/20 04:49:30;;;;;;;9.50;4.00;;;;;;;5.68;100.00;98252.93;273482;1255;22801;-89
2023/11/20 05:03:39;;;;;;;10.30;5.60;;;;;;;5.79;100.00;98252.43;273558;1271;22160;-89
2023/11/20 05:09:42;;;;;;;9.60;5.10;;;;;;;5.83;100.00;98254.47;272696;1269;23790;-90
2023/11/20 05:15:47;;;;;;;11.40;5.60;;;;;;;5.85;100.00;98252.25;272562;1270;22607;-90
2023/11/20 05:21:50;;;;;;;20.10;9.40;;;;;;;5.87;100.00;98252.44;273327;1269;22204;-90
2023/11/20 05:28:39;;;;;;;14.80;7.40;;;;;;;5.89;100.00;98248.52;273495;1276;22258;-91
2023/11/20 05:34:42;;;;;;;;;;;;;;;5.92;100.00;98248.58;273565;1269;22395;-91
2023/11/20 05:40:46;;;;;;;6.40;4.50;;;;;;;5.92;100.00;98245.87;273315;1277;22276;-90
2023/11/20 05:47:17;;;;;;;10.10;3.90;;;;;;;5.94;100.00;98248.94;273657;1272;22259;-90
2023/11/20 05:53:22;;;;;;;6.00;4.30;;;;;;;5.96;100.00;98251.30;272990;1272;22192;-90
2023/11/20 05:59:49;;;;;;;10.20;4.40;;;;;;;6.00;100.00;98251.90;273419;1270;22197;-91
2023/11/20 06:06:32;;;;;;;9.00;4.30;;;;;;;6.03;100.00;98254.67;273026;1269;22427;-90
2023/11/20 06:13:41;;;;;;;18.20;5.00;;;;;;;6.05;100.00;98256.89;273009;1273;22572;-90
2023/11/20 06:19:44;;;;;;;9.60;4.30;;;;;;;6.05;100.00;98255.79;271758;1269;22430;-90
2023/11/20 06:25:46;;;;;;;11.00;4.20;;;;;;;6.03;100.00;98255.59;272209;1269;22669;-90
2023/11/20 06:31:48;;;;;;;9.10;5.20;;;;;;;6.02;100.00;98257.22;271884;1269;22905;-90
2023/11/20 06:37:51;;;;;;;8.90;5.60;;;;;;;6.04;100.00;98257.88;272939;1269;23336;-91
2023/11/20 06:43:53;;;;;;;9.10;5.80;;;;;;;6.07;100.00;98268.32;271981;1269;22572;-90
2023/11/20 06:49:55;;;;;;;10.90;5.80;;;;;;;6.09;100.00;98270.67;271335;1269;22331;-89
2023/11/20 06:55:57;;;;;;;10.40;6.30;;;;;;;6.10;100.00;98271.39;272642;1269;22290;-89
2023/11/20 07:02:00;;;;;;;12.30;6.70;;;;;;;6.11;100.00;98275.67;272048;1268;22452;-90
2023/11/20 07:08:06;;;;;;;9.10;5.90;;;;;;;6.13;100.00;98276.58;272965;1269;22514;-92
2023/11/20 07:14:09;;;;;;;11.80;6.20;;;;;;;6.17;100.00;98277.35;271037;1269;22528;-90
2023/11/20 07:20:11;;;;;;;9.50;6.70;;;;;;;6.22;100.00;98278.67;272314;1269;24250;-90
2023/11/20 07:26:19;;;;;;;12.60;7.20;;;;;;;6.26;100.00;98279.21;272304;1268;23237;-90
2023/11/20 07:32:21;;;;;;;12.10;7.50;;;;;;;6.29;100.00;98276.94;273206;1275;22228;-89
2023/11/20 07:38:26;;;;;;;10.20;6.60;;;;;;;6.35;100.00;98276.94;272992;1269;22550;-90
2023/11/20 07:45:35;;;;;;;13.00;7.30;;;;;;;6.41;100.00;98274.48;272801;1272;22207;-90
2023/11/20 07:52:00;;;;;;;10.40;5.80;;;;;;;6.51;100.00;98268.70;273281;1273;23350;-90
2023/11/20 07:58:57;;;;;;;12.40;5.40;;;;;;;6.59;100.00;98265.58;273181;1275;22760;-90
2023/11/20 08:05:52;;;;;;;11.90;5.80;;;;;;;6.68;100.00;98266.58;272582;1262;22365;-89
2023/11/20 08:11:55;;;;;;;11.30;6.30;;;;;;;6.71;100.00;98264.98;271960;1269;22246;-89
2023/11/20 08:17:58;;;;;;;10.40;5.30;;;;;;;6.73;100.00;98268.13;272453;1269;22493;-91
2023/11/20 08:24:00;;;;;;;11.70;5.70;;;;;;;6.75;100.00;98271.35;271931;1269;22322;-90
2023/11/20 08:30:27;;;;;;;13.90;6.60;;;;;;;6.79;100.00;98272.73;273048;1269;22519;-89
2023/11/20 08:36:32;;;;;;;12.60;6.10;;;;;;;6.84;100.00;98274.05;273255;1276;22305;-90
2023/11/20 08:43:26;;;;;;;9.10;5.00;;;;;;;6.86;100.00;98276.80;272849;1269;23841;-89
2023/11/20 08:49:31;;;;;;;8.20;5.20;;;;;;;6.87;100.00;98272.60;272856;1270;22507;-90
2023/11/20 08:55:41;;;;;;;9.80;5.00;;;;;;;6.88;100.00;98272.77;273745;1272;22214;-89
2023/11/20 09:02:45;;;;;;;9.20;5.20;;;;;;;6.89;100.00;98265.62;273554;1272;22381;-90
2023/11/20 09:08:50;;;;;;;9.40;4.80;;;;;;;6.90;100.00;98264.94;273414;1260;22730;-90
2023/11/20 09:15:12;;;;;;;9.20;4.90;;;;;;;6.95;100.00;98264.62;273608;1275;22180;-90
2023/11/20 09:28:49;;;;;;;12.70;6.80;;;;;;;7.02;100.00;98255.08;273356;1270;22200;-89
2023/11/20 09:36:09;;;;;;;10.20;6.20;;;;;;;7.06;100.00;98250.46;273356;1272;22184;-89
2023/11/20 09:42:36;;;;;;;;;;;;;;;7.10;100.00;98248.19;273340;1269;22426;-89
2023/11/20 09:48:38;;;;;;;11.00;7.50;;;;;;;7.17;100.00;98243.61;273512;1270;22344;-90
2023/11/20 09:54:44;;;;;;;10.10;6.20;;;;;;;7.23;100.00;98237.48;273655;1273;23425;-90
2023/11/20 10:00:46;;;;;;;10.20;6.60;;;;;;;7.29;100.00;98226.65;272763;1270;23514;-90
2023/11/20 10:07:14;;;;;;;11.60;6.20;;;;;;;7.34;100.00;98224.45;273900;1276;22546;-90
2023/11/20 10:13:21;;;;;;;;;;;;;;;7.40;100.00;98225.77;273557;1277;22571;-91
2023/11/20 10:20:14;;;;;;;12.10;5.60;;;;;;;7.51;100.00;98222.70;273479;1271;22865;-90
2023/11/20 10:26:41;;;;;;;9.30;5.70;;;;;;;7.65;100.00;98217.70;273446;1272;22654;-90
2023/11/20 10:32:43;;;;;;;12.00;6.50;;;;;;;7.72;100.00;98216.07;273658;1269;22182;-90
2023/11/20 10:47:29;;;;;;;11.80;6.10;;;;;;;7.77;100.00;98206.69;273684;1269;22185;-90
2023/11/20 10:54:45;;;;;;;8.50;5.80;;;;;;;7.83;100.00;98199.76;273728;1277;22253;-90
2023/11/20 11:00:53;;;;;;;9.20;4.90;;;;;;;7.89;100.00;98189.76;272564;1268;22238;-89
2023/11/20 11:07:03;;;;;;;7.90;5.30;;;;;;;7.91;100.00;98182.61;273909;1276;23385;-90
2023/11/20 11:13:36;;;;;;;7.80;4.80;;;;;;;7.96;100.00;98178.92;273574;1272;22967;-90
2023/11/20 11:20:29;;;;;;;9.20;4.60;;;;;;;7.99;100.00;98174.36;273515;1272;22168;-91
2023/11/20 11:27:15;;;;;;;10.00;5.00;;;;;;;8.02;100.00;98167.13;273482;1277;22416;-91
2023/11/20 11:33:38;;;;;;;8.70;5.30;;;;;;;8.07;100.00;98162.65;273837;1272;22224;-90
2023/11/20 11:39:48;;;;;;;11.00;5.50;;;;;;;8.10;100.00;98159.55;273591;1269;23161;-92
2023/11/20 11:45:50;;;;;;;8.90;4.80;;;;;;;8.12;100.00;98156.08;273206;1262;23197;-92
2023/11/20 11:51:55;;;;;;;10.70;4.90;;;;;;;8.10;100.00;98153.64;273053;1269;22253;-91
2023/11/20 11:58:07;;;;;;;7.00;4.90;;;;;;;8.07;100.00;98149.64;273465;1272;22208;-90
2023/11/20 12:12:43;;;;;;;6.80;4.20;;;;;;;8.13;100.00;98140.03;273566;1269;22198;-89
2023/11/20 12:19:11;;;;;;;11.30;6.40;;;;;;;8.10;100.00;98134.09;272680;1269;22560;-89
2023/11/20 12:32:53;;;;;;;9.30;6.90;;;;;;;8.11;100.00;98125.14;271399;1269;22205;-90
2023/11/20 12:39:22;;;;;;;9.00;6.00;;;;;;;8.09;100.00;98117.80;273573;1269;23575;-89
2023/11/20 12:45:24;;;;;;;7.70;5.50;;;;;;;8.13;100.00;98115.73;273506;1269;22551;-91
2023/11/20 12:51:48;;;;;;;9.20;6.00;;;;;;;8.15;100.00;98114.18;273281;1256;22276;-90
2023/11/20 12:57:59;;;;;;;10.70;5.90;;;;;;;8.18;100.00;98110.23;272858;1273;22206;-89
2023/11/20 13:04:30;;;;;;;10.70;5.30;;;;;;;8.23;100.00;98108.88;272976;1272;22187;-90
2023/11/20 13:10:55;;;;;;;8.80;5.40;;;;;;;8.27;100.00;98107.13;273559;1277;22654;-90
2023/11/20 13:24:51;;;;;;;10.20;4.60;;;;;;;8.41;100.00;98087.72;273658;1276;22536;-91
2023/11/20 13:38:12;;;;;;;10.80;5.70;;;;;;;8.44;100.00;98091.31;272033;1284;22193;-89
2023/11/20 13:44:26;;;;;;;8.70;6.00;;;;;;;8.42;100.00;98093.26;271642;1281;22438;-90
2023/11/20 13:50:53;;;;;;;12.80;7.50;;;;;;;8.39;100.00;98095.20;272106;1285;22339;-91
2023/11/20 13:56:58;;;;;;;10.10;7.00;;;;;;;8.32;100.00;98093.13;272038;1279;22439;-90
2023/11/20 14:03:47;;;;;;;9.70;6.40;;;;;;;8.23;100.00;98087.20;272220;1281;22254;-89
2023/11/20 14:09:52;;;;;;;10.20;5.90;;;;;;;8.15;100.00;98084.83;273916;1275;22286;-90
2023/11/20 14:16:55;;;;;;;9.40;5.40;;;;;;;8.09;100.00;98084.23;273464;1260;22912;-90
2023/11/20 14:23:03;;;;;;;9.20;5.60;;;;;;;8.07;100.00;98081.80;273666;1277;23010;-88
2023/11/20 14:29:33;;;;;;;8.90;5.40;;;;;;;8.03;100.00;98073.30;273583;1276;22210;-89
2023/11/20 14:42:58;;;;;;;7.90;5.70;;;;;;;7.94;100.00;98075.66;272215;1275;22290;-90
2023/11/20 14:49:07;;;;;;;9.60;5.10;;;;;;;7.90;100.00;98071.73;272687;1279;22247;-89
2023/11/20 14:55:41;;;;;;;9.70;5.90;;;;;;;7.80;100.00;98069.17;272452;1282;23464;-90
2023/11/20 15:01:50;;;;;;;8.90;4.90;;;;;;;7.78;100.00;98066.81;273049;1272;22964;-89
2023/11/20 15:08:45;;;;;;;10.70;6.30;;;;;;;7.75;100.00;98067.59;273401;1272;22183;-88
2023/11/20 15:15:13;;;;;;;7.70;5.70;;;;;;;7.75;100.00;98065.16;273728;1270;23440;-90
2023/11/20 15:22:00;;;;;;;12.40;8.50;;;;;;;7.74;100.00;98065.08;273857;1276;22207;-89
2023/11/20 15:28:31;;;;;;;10.80;6.70;;;;;;;7.71;100.00;98065.68;273703;1270;22194;-90
2023/11/20 15:34:33;;;;;;;9.50;6.40;;;;;;;7.68;100.00;98063.70;273212;1269;22415;-90
2023/11/20 15:40:53;;;;;;;8.80;6.00;;;;;;;7.69;100.00;98066.44;273629;1277;23136;-91
2023/11/20 15:47:51;;;;;;;10.50;6.90;;;;;;;7.71;100.00;98066.77;273697;1273;22198;-90
2023/11/20 15:54:43;;;;;;;11.70;7.30;;;;;;;7.73;100.00;98070.83;273170;1270;22380;-89
2023/11/20 16:01:42;;;;;;;12.20;8.30;;;;;;;7.71;100.00;98068.79;273555;1270;22193;-89
2023/11/20 16:08:08;;;;;;;16.10;9.50;;;;;;;7.70;100.00;98071.98;272679;1269;22555;-88
2023/11/20 16:14:47;;;;;;;17.00;9.40;;;;;;;7.72;100.00;98073.48;272975;1272;22233;-90
2023/11/20 16:21:15;;;;;;;16.00;9.70;;;;;;;7.70;100.00;98074.70;273444;1270;22168;-89
2023/11/20 16:27:32;;;;;;;20.00;11.40;;;;;;;7.69;100.00;98085.81;273236;1269;22368;-90
2023/11/20 16:33:51;;;;;;;16.10;10.70;;;;;;;7.67;100.00;98087.58;272360;1270;22199;-92
2023/11/20 16:40:57;;;;;;;19.10;10.90;;;;;;;7.67;100.00;98085.88;273062;1274;22377;-89
2023/11/20 16:47:50;;;;;;;26.40;15.70;;;;;;;7.67;100.00;98081.98;272229;1270;22335;-90
2023/11/20 16:55:08;;;;;;;23.20;15.70;;;;;;;7.66;100.00;98075.06;272080;1276;214197;-90
2023/11/20 17:01:18;;;;;;;18.00;12.30;;;;;;;7.68;100.00;98072.73;271320;1277;22309;-90
2023/11/20 17:07:45;;;;;;;21.80;11.50;;;;;;;7.69;100.00;98070.64;272456;1282;22224;-90
2023/11/20 17:14:00;;;;;;;22.70;13.20;;;;;;;7.70;100.00;98071.36;272409;1272;22392;-89
2023/11/20 17:20:32;;;;;;;24.60;14.60;;;;;;;7.72;100.00;98073.95;273975;1273;22339;-90
2023/11/20 17:26:40;;;;;;;23.20;13.40;;;;;;;7.74;100.00;98073.34;273060;1269;23300;-90
2023/11/20 17:33:03;;;;;;;;;;;;;;;7.77;100.00;98078.73;273351;1277;22669;-89
2023/11/20 17:39:45;;;;;;;21.70;14.40;;;;;;;7.78;100.00;98079.28;273148;1275;22321;-90
2023/11/20 17:46:05;;;;;;;18.60;11.40;;;;;;;7.82;100.00;98087.25;272987;1269;23586;-90
2023/11/20 17:52:56;;;;;;;16.40;11.00;;;;;;;7.88;100.00;98086.52;273753;1276;22269;-89
2023/11/20 17:59:23;;;;;;;16.30;10.40;;;;;;;7.92;100.00;98091.30;273480;1272;22471;-88
2023/11/20 18:05:29;;;;;;;22.70;12.50;;;;;;;7.96;100.00;98099.33;273746;1272;22661;-88
2023/11/20 18:11:32;;;;;;;16.70;10.00;;;;;;;7.99;100.00;98093.67;273358;1258;22351;-89
2023/11/20 18:17:43;;;;;;;22.60;14.80;;;;;;;7.99;100.00;98099.60;273362;1277;22355;-88
2023/11/20 18:23:46;;;;;;;21.20;12.80;;;;;;;7.99;100.00;98100.61;272686;1269;22571;-90
2023/11/20 18:29:56;;;;;;;22.00;14.10;;;;;;;7.98;100.00;98093.59;272801;1253;23185;-88
2023/11/20 18:36:27;;;;;;;24.90;15.80;;;;;;;7.99;100.00;98097.81;273412;1269;22859;-88
2023/11/20 18:42:58;;;;;;;25.00;12.80;;;;;;;8.03;100.00;98103.05;273362;1270;22218;-88
2023/11/20 18:49:48;;;;;;;19.80;10.60;;;;;;;8.07;100.00;98098.95;271696;1276;22280;-89
2023/11/20 18:55:51;;;;;;;11.90;7.80;;;;;;;8.10;100.00;98100.13;264089;1276;10002559;-89
2023/11/20 19:02:45;;;;;;;16.20;8.60;;;;;;;8.14;100.00;98102.17;272065;1284;22688;-89
2023/11/20 19:09:38;;;;;;;15.30;8.70;;;;;;;8.17;100.00;98111.33;272007;1277;22727;-89
2023/11/20 19:23:27;;;;;;;11.40;7.40;;;;;;;8.20;100.00;98114.69;272049;1275;22255;-90
2023/11/20 19:30:07;;;;;;;16.10;8.80;;;;;;;8.20;100.00;98120.98;273742;1260;22258;-89
2023/11/20 19:37:54;;;;;;;16.10;9.50;;;;;;;8.22;100.00;98122.48;272488;1273;23515;-90
2023/11/20 19:44:35;;;;;;;17.60;9.80;;;;;;;8.22;100.00;98118.73;272216;1273;23401;-90
2023/11/20 19:50:55;;;;;;;16.00;9.00;;;;;;;8.22;100.00;98124.38;271824;1272;22555;-89
2023/11/20 19:56:57;;;;;;;14.10;8.30;;;;;;;8.22;100.00;98128.80;272775;1262;22365;-90
2023/11/20 20:03:00;;;;;;;15.10;8.30;;;;;;;8.22;100.00;98131.77;272854;1273;22214;-90
2023/11/20 20:09:08;;;;;;;15.90;9.70;;;;;;;8.24;100.00;98131.10;273602;1272;22215;-90
2023/11/20 20:16:02;;;;;;;21.60;11.10;;;;;;;8.25;100.00;98134.38;273699;1270;22186;-92
2023/11/20 20:22:31;;;;;;;16.60;10.20;;;;;;;8.26;100.00;98140.69;271783;1269;22545;-90
2023/11/20 20:28:44;;;;;;;17.80;10.20;;;;;;;8.25;100.00;98145.05;271652;1269;22700;-90
2023/11/20 20:35:58;;;;;;;18.10;9.30;;;;;;;8.25;100.00;98149.95;273511;1269;22220;-91
2023/11/20 20:42:07;;;;;;;16.70;9.70;;;;;;;8.24;100.00;98156.04;273524;1269;22570;-90
2023/11/20 20:48:10;;;;;;;16.00;10.50;;;;;;;8.23;100.00;98155.94;272942;1270;23050;-90
2023/11/20 20:54:12;;;;;;;18.30;10.60;;;;;;;8.22;100.00;98147.74;273289;1277;22272;-91
2023/11/20 21:00:30;;;;;;;17.50;10.70;;;;;;;8.24;100.00;98150.58;273366;1271;22204;-92
2023/11/20 21:08:28;;;;;;;15.60;10.00;;;;;;;8.25;100.00;98148.32;273270;1269;22326;-90
2023/11/20 21:14:54;;;;;;;18.70;9.50;;;;;;;8.25;100.00;98149.34;271747;1275;23552;-89
2023/11/20 21:20:56;;;;;;;23.50;10.70;;;;;;;8.23;100.00;98158.04;271393;1273;22596;-90
2023/11/20 21:27:46;;;;;;;;;;;;;;;;;;;;;
2023/11/20 21:34:07;;;;;;;18.40;11.50;;;;;;;8.20;100.00;98156.12;271199;1275;22294;-90
2023/11/20 21:41:00;;;;;;;22.00;13.40;;;;;;;8.18;100.00;98158.22;272215;1283;23285;-90
2023/11/20 21:47:03;;;;;;;18.70;11.30;;;;;;;8.18;100.00;98158.36;271631;1274;22291;-91
2023/11/20 21:53:05;;;;;;;19.90;10.70;;;;;;;8.17;100.00;98159.29;271447;1274;22527;-90
2023/11/20 22:00:05;;;;;;;16.10;8.30;;;;;;;8.18;100.00;98165.14;272138;1274;23119;-90
2023/11/20 22:06:37;;;;;;;14.70;8.90;;;;;;;8.16;100.00;98163.80;272388;1281;23210;-91
2023/11/20 22:12:54;;;;;;;17.50;9.30;;;;;;;8.15;100.00;98164.11;273586;1271;23173;-92
2023/11/20 22:18:56;;;;;;;;;;;;;;;8.14;100.00;98162.07;270793;1269;22545;-91
2023/11/20 22:25:00;;;;;;;34.10;18.30;;;;;;;8.13;100.00;98160.76;272560;1269;22275;-92
2023/11/20 22:31:04;;;;;;;32.20;14.70;;;;;;;8.11;100.00;98168.52;272699;1269;22224;-92
2023/11/20 22:37:07;;;;;;;31.10;15.00;;;;;;;8.10;100.00;98175.67;271328;1269;22580;-90
2023/11/20 22:43:10;;;;;;;35.70;17.60;;;;;;;8.09;100.00;98181.82;270727;1268;22634;-90
2023/11/20 22:49:13;;;;;;;29.50;11.10;;;;;;;8.06;100.00;98187.24;272369;1269;22573;-93
2023/11/20 22:55:15;;;;;;;18.40;9.30;;;;;;;8.04;100.00;98190.66;272413;1269;22432;-90
2023/11/20 23:01:25;;;;;;;17.90;9.40;;;;;;;8.03;100.00;98192.91;273164;1276;22510;-91
2023/11/20 23:07:33;;;;;;;13.80;7.10;;;;;;;8.02;100.00;98187.45;273046;1269;23489;-90
2023/11/20 23:13:35;;;;;;;13.90;7.40;;;;;;;7.99;100.00;98182.68;272823;1269;22639;-91
2023/11/20 23:19:37;;;;;;;9.50;5.60;;;;;;;7.96;100.00;98175.18;272679;1269;22265;-90
2023/11/20 23:25:40;;;;;;;12.50;4.70;;;;;;;7.93;100.00;98173.52;273337;1274;23176;-90
2023/11/20 23:32:45;;;;;;;7.20;4.40;;;;;;;7.90;100.00;98175.20;273257;1277;23266;-89
2023/11/20 23:38:47;;;;;;;11.10;4.00;;;;;;;7.85;100.00;98174.14;272845;1269;22215;-92
2023/11/20 23:44:49;;;;;;;8.10;4.00;;;;;;;7.81;100.00;98171.16;272653;1266;22412;-93
2023/11/20 23:50:58;;;;;;;7.20;3.70;;;;;;;7.78;100.00;98172.06;272697;1269;23230;-92
2023/11/20 23:57:01;;;;;;;7.90;4.20;;;;;;;7.74;100.00;98169.07;272588;1269;22185;-91
